Hauptseite
METAR-TAF:

METAR-TAF

Flughäfen :

Southampton International Airport

Southampton, England

Breite: 50-54N, Länge: 001-24W, Höhe: 9 m

Beobachtung

Neuester Wetterbericht von vor 15 Stunden und 46 Minuten, um 16:50 UTC
Wind 6 kt aus Süd/Südwest
Temperatur 9°C
Luftfeuchtigkeit 66%
Luftdruck 1032 hPa
Sichtweite 10 km oder mehr
Leicht bewölkt in der Höhe von 2500 ft

METAR: EGHI 131650Z 20006KT 9999 FEW025 09/03 Q1032

Zeit: 09:36 (08:36 UTC)

Prognose

Neuester Wetterbericht von vor 15 Stunden und 40 Minuten, um 16:56 UTC
Gültige Prognose vom 13 um 18 UTC bis 13 um 22 UTC
Wind 4 kt aus Südwest
Sichtweite 10 km oder mehr
Aufgelockert bewölkt in der Höhe von 3000 ft

TAF: EGHI 131656Z 1318/1322 23004KT 9999 SCT030

Wetterbeobachtungen und Prognosen von mehr als 4000 Flughäfen (METAR und TAF Bericht).

Die verfügbaren Stationen werden durch gelbe und rote Markierungen auf der Karte dargestellt.

Führen Sie die Maus auf sie, um den Namen der Station zu sehen.

Darauf klicken, um die Beobachtung von Wetterbeobachtungen und Prognosen zu sehen.

Um die Karte zu ändern : klicken Sie auf den grünen Tasten mit einem schwarzen Kreuz Zum Vergrößern, auf den grünen Button mit einem Gedankenstrich zu verkleinern, oder auf die grünen Pfeile für benachbarte Karten.


METAR-TAF: